Terminal Aerodrome Forecast
Issued by NWS

Home | Current Version | Previous Version | Graphics & Text | Print | Product List | Glossary On
Versions: 1 2 3 4 5 6 7 8 9 10 11 12
000
FTUS43 KMPX 200520
TAFRWF
TAF
KRWF 200520Z 2006/2106 33008KT P6SM BKN250
     FM201000 36009KT P6SM BKN150
     FM210000 33005KT P6SM SCT250=

USA.gov is the U.S. government's official web portal to all federal, state and local government web resources and services.